createdAt,value
2023-01-22T00:01:41.029Z,50.37
2023-01-22T00:04:09.414Z,50.47
2023-01-22T00:06:37.130Z,50.04
2023-01-22T00:09:05.062Z,50.20
2023-01-22T00:11:32.774Z,50.10
2023-01-22T00:14:01.901Z,50.32
2023-01-22T00:16:29.726Z,50.23
2023-01-22T00:18:57.404Z,50.20
2023-01-22T00:21:25.330Z,50.36
2023-01-22T00:23:53.257Z,50.29
2023-01-22T00:26:21.138Z,50.25
2023-01-22T00:28:48.848Z,50.30
2023-01-22T00:31:18.023Z,50.18
2023-01-22T00:33:45.935Z,50.32
2023-01-22T00:36:15.049Z,50.13
2023-01-22T00:38:42.750Z,50.25
2023-01-22T00:41:10.706Z,50.31
2023-01-22T00:43:39.458Z,50.27
2023-01-22T00:46:07.417Z,50.25
2023-01-22T00:48:36.488Z,50.15
2023-01-22T00:51:04.271Z,50.03
2023-01-22T00:53:31.979Z,50.31
2023-01-22T00:56:01.670Z,50.07
2023-01-22T00:58:29.495Z,50.07
2023-01-22T01:00:57.264Z,50.02
2023-01-22T01:03:27.964Z,50.16
2023-01-22T01:05:57.155Z,50.06
2023-01-22T01:08:25.245Z,50.05
2023-01-22T01:10:55.088Z,50.12
2023-01-22T01:13:22.787Z,49.99
2023-01-22T01:15:50.555Z,50.18
2023-01-22T01:18:18.255Z,50.19
2023-01-22T01:20:46.256Z,49.97
2023-01-22T01:23:15.306Z,50.06
2023-01-22T01:25:43.227Z,50.09
2023-01-22T01:28:10.895Z,50.20
2023-01-22T01:30:38.563Z,50.15
2023-01-22T01:33:06.254Z,49.79
2023-01-22T01:35:33.947Z,49.87
2023-01-22T01:38:01.626Z,50.15
2023-01-22T01:40:30.646Z,50.15
2023-01-22T01:42:58.318Z,49.98
2023-01-22T01:45:28.182Z,50.07
2023-01-22T01:47:59.199Z,50.16
2023-01-22T01:50:27.157Z,50.19
2023-01-22T01:52:54.954Z,50.11
2023-01-22T01:55:28.666Z,50.17
2023-01-22T01:57:59.682Z,50.16
2023-01-22T02:00:28.132Z,49.97
2023-01-22T02:02:56.073Z,49.96
2023-01-22T02:05:23.750Z,50.10
2023-01-22T02:07:51.405Z,50.03
2023-01-22T02:10:19.341Z,50.11
2023-01-22T02:12:47.130Z,50.22
2023-01-22T02:15:16.187Z,50.17
2023-01-22T02:17:44.456Z,50.03
2023-01-22T02:20:13.005Z,49.90
2023-01-22T02:22:42.049Z,50.18
2023-01-22T02:25:10.317Z,50.03
2023-01-22T02:27:38.686Z,50.21
2023-01-22T02:30:07.441Z,49.85
2023-01-22T02:32:35.149Z,50.09
2023-01-22T02:35:03.058Z,50.03
2023-01-22T02:37:31.208Z,50.13
2023-01-22T02:40:00.235Z,50.13
2023-01-22T02:42:28.126Z,50.16
2023-01-22T02:44:55.858Z,50.22
2023-01-22T02:47:23.519Z,50.23
2023-01-22T02:49:51.190Z,49.83
2023-01-22T02:52:19.072Z,50.06
2023-01-22T02:54:46.734Z,49.94
2023-01-22T02:57:15.759Z,49.89
2023-01-22T02:59:43.426Z,50.12
2023-01-22T03:02:11.161Z,49.89
2023-01-22T03:04:39.177Z,49.95
2023-01-22T03:07:06.854Z,49.94
2023-01-22T03:09:34.518Z,50.04
2023-01-22T03:12:02.195Z,50.16
2023-01-22T03:14:48.877Z,50.03
2023-01-22T03:17:34.198Z,50.01
2023-01-22T03:20:19.823Z,49.84
2023-01-22T03:22:47.586Z,49.94
2023-01-22T03:25:15.441Z,50.06
2023-01-22T03:28:03.090Z,49.79
2023-01-22T03:30:32.350Z,49.87
2023-01-22T03:33:00.016Z,49.95
2023-01-22T03:35:27.671Z,49.98
2023-01-22T03:37:55.343Z,49.76
2023-01-22T03:40:23.020Z,49.73
2023-01-22T03:42:50.777Z,49.80
2023-01-22T03:45:18.436Z,50.08
2023-01-22T03:47:47.484Z,50.00
2023-01-22T03:50:15.512Z,49.82
2023-01-22T03:52:43.306Z,49.86
2023-01-22T03:55:11.430Z,50.07
2023-01-22T03:57:39.098Z,49.93
2023-01-22T04:00:08.313Z,49.83
2023-01-22T04:02:37.785Z,50.09
2023-01-22T04:05:08.062Z,50.03
2023-01-22T04:07:35.775Z,49.92
2023-01-22T04:10:03.444Z,49.86
2023-01-22T04:12:31.108Z,49.75
2023-01-22T04:14:58.778Z,50.06
2023-01-22T04:17:26.875Z,50.12
2023-01-22T04:19:54.623Z,49.88
2023-01-22T04:22:23.765Z,50.11
2023-01-22T04:24:51.447Z,49.89
2023-01-22T04:27:19.108Z,49.83
2023-01-22T04:29:46.801Z,49.91
2023-01-22T04:32:14.466Z,50.16
2023-01-22T04:34:42.125Z,49.86
2023-01-22T04:37:09.781Z,50.08
2023-01-22T04:39:38.801Z,50.03
2023-01-22T04:42:06.577Z,49.89
2023-01-22T04:44:34.246Z,49.85
2023-01-22T04:47:01.919Z,49.81
2023-01-22T04:49:29.588Z,49.73
2023-01-22T04:51:57.350Z,49.92
2023-01-22T04:54:25.019Z,49.94
2023-01-22T04:56:54.145Z,50.06
2023-01-22T04:59:21.871Z,49.88
2023-01-22T05:01:50.881Z,49.95
2023-01-22T05:04:18.557Z,49.74
2023-01-22T05:06:46.234Z,49.87
2023-01-22T05:09:13.946Z,50.01
2023-01-22T05:11:41.847Z,49.69
2023-01-22T05:14:10.897Z,49.80
2023-01-22T05:16:38.651Z,49.91
2023-01-22T05:19:06.382Z,49.84
2023-01-22T05:21:34.139Z,49.92
2023-01-22T05:24:01.935Z,50.06
2023-01-22T05:26:29.597Z,49.92
2023-01-22T05:28:57.273Z,49.95
2023-01-22T05:31:26.424Z,49.88
2023-01-22T05:33:54.114Z,49.73
2023-01-22T05:36:22.043Z,49.82
2023-01-22T05:38:49.710Z,49.80
2023-01-22T05:41:17.379Z,49.54
2023-01-22T05:43:45.041Z,49.76
2023-01-22T05:46:12.793Z,49.55
2023-01-22T05:48:41.841Z,49.56
2023-01-22T05:51:09.674Z,49.46
2023-01-22T05:53:37.486Z,49.63
2023-01-22T05:56:05.962Z,49.54
2023-01-22T05:58:33.758Z,49.49
2023-01-22T06:01:01.443Z,49.29
2023-01-22T06:03:29.123Z,49.29
2023-01-22T06:06:01.850Z,49.39
2023-01-22T06:08:29.745Z,49.56
2023-01-22T06:11:01.466Z,49.52
2023-01-22T06:13:29.603Z,49.41
2023-01-22T06:15:57.275Z,49.37
2023-01-22T06:18:25.342Z,49.57
2023-01-22T06:20:53.105Z,49.60
2023-01-22T06:23:22.818Z,49.41
2023-01-22T06:25:53.192Z,49.62
2023-01-22T06:28:20.924Z,49.36
2023-01-22T06:30:48.691Z,49.45
2023-01-22T06:33:16.438Z,49.44
2023-01-22T06:35:44.090Z,49.31
2023-01-22T06:38:11.793Z,49.53
2023-01-22T06:40:40.802Z,49.48
2023-01-22T06:43:10.756Z,49.46
2023-01-22T06:45:39.303Z,49.54
2023-01-22T06:48:07.335Z,49.54
2023-01-22T06:50:34.993Z,49.54
2023-01-22T06:53:02.685Z,49.46
2023-01-22T06:55:30.361Z,49.41
2023-01-22T06:57:59.389Z,49.56
2023-01-22T07:00:27.091Z,49.70
2023-01-22T07:02:54.784Z,49.59
2023-01-22T07:05:23.220Z,49.78
2023-01-22T07:07:54.081Z,49.65
2023-01-22T07:10:21.838Z,49.69
2023-01-22T07:12:49.605Z,49.74
2023-01-22T07:15:18.831Z,49.59
2023-01-22T07:17:51.688Z,49.67
2023-01-22T07:20:19.908Z,49.55
2023-01-22T07:22:47.751Z,49.43
2023-01-22T07:25:15.495Z,49.60
2023-01-22T07:27:43.156Z,49.79
2023-01-22T07:30:11.974Z,49.51
2023-01-22T07:32:41.015Z,49.52
2023-01-22T07:35:09.030Z,49.62
2023-01-22T07:37:37.313Z,49.48
2023-01-22T07:40:06.001Z,49.50
2023-01-22T07:42:33.670Z,49.57
2023-01-22T07:45:01.354Z,49.51
2023-01-22T07:47:29.062Z,49.51
2023-01-22T07:49:58.329Z,49.61
2023-01-22T07:52:26.036Z,49.48
2023-01-22T07:54:53.703Z,49.51
2023-01-22T07:57:21.374Z,49.31
2023-01-22T07:59:49.064Z,49.42
2023-01-22T08:02:16.813Z,49.52
2023-01-22T08:04:44.764Z,49.43
2023-01-22T08:07:17.619Z,49.55
2023-01-22T08:09:45.333Z,49.49
2023-01-22T08:12:13.413Z,49.45
2023-01-22T08:14:41.068Z,49.56
2023-01-22T08:17:08.762Z,49.39
2023-01-22T08:19:36.442Z,49.34
2023-01-22T08:22:04.311Z,49.41
2023-01-22T08:24:34.332Z,49.40
2023-01-22T08:27:02.056Z,49.33
2023-01-22T08:29:30.010Z,49.53
2023-01-22T08:31:57.855Z,49.60
2023-01-22T08:34:25.679Z,49.24
2023-01-22T08:36:53.341Z,49.32
2023-01-22T08:39:21.011Z,49.50
2023-01-22T08:41:52.144Z,49.33
2023-01-22T08:44:19.829Z,49.42
2023-01-22T08:46:47.523Z,49.25
2023-01-22T08:49:15.193Z,49.43
2023-01-22T08:51:42.854Z,49.43
2023-01-22T08:54:10.922Z,49.39
2023-01-22T08:56:38.662Z,49.16
2023-01-22T08:59:07.686Z,49.28
2023-01-22T09:01:35.397Z,49.34
2023-01-22T09:04:03.319Z,49.10
2023-01-22T09:06:31.002Z,49.24
2023-01-22T09:08:59.290Z,49.14
2023-01-22T09:11:26.964Z,49.18
2023-01-22T09:13:56.160Z,49.24
2023-01-22T09:16:25.555Z,49.21
2023-01-22T09:18:53.390Z,49.28
2023-01-22T09:21:21.075Z,49.16
2023-01-22T09:23:48.769Z,49.11
2023-01-22T09:26:16.480Z,49.28
2023-01-22T09:28:44.133Z,49.20
2023-01-22T09:31:13.514Z,49.20
2023-01-22T09:33:42.537Z,49.14
2023-01-22T09:36:11.401Z,49.22
2023-01-22T09:38:39.273Z,49.08
2023-01-22T09:41:08.922Z,49.24
2023-01-22T09:43:38.251Z,49.11
2023-01-22T09:46:07.201Z,49.18
2023-01-22T09:48:36.592Z,49.00
2023-01-22T09:51:06.282Z,49.16
2023-01-22T09:53:34.025Z,49.01
2023-01-22T09:56:01.679Z,48.94
2023-01-22T09:58:29.361Z,48.91
2023-01-22T10:01:00.366Z,48.77
2023-01-22T10:03:31.354Z,48.87
2023-01-22T10:06:00.321Z,48.81
2023-01-22T10:08:32.271Z,48.74
2023-01-22T10:11:00.994Z,48.69
2023-01-22T10:13:29.290Z,48.74
2023-01-22T10:15:57.209Z,48.94
2023-01-22T10:18:35.959Z,48.96
2023-01-22T10:21:05.898Z,48.68
2023-01-22T10:23:35.543Z,48.89
2023-01-22T10:26:08.396Z,48.80
2023-01-22T10:28:36.057Z,48.78
2023-01-22T10:31:03.765Z,48.83
2023-01-22T10:33:31.617Z,48.72
2023-01-22T10:35:59.326Z,48.42
2023-01-22T10:38:28.421Z,48.44
2023-01-22T10:40:58.843Z,48.44
2023-01-22T10:43:34.140Z,48.64
2023-01-22T10:46:05.967Z,48.75
2023-01-22T10:48:34.263Z,48.50
2023-01-22T10:51:04.369Z,48.74
2023-01-22T10:53:33.786Z,48.39
2023-01-22T10:56:04.133Z,48.48
2023-01-22T10:58:33.233Z,48.45
2023-01-22T11:01:02.893Z,48.68
2023-01-22T11:03:33.169Z,48.50
2023-01-22T11:06:02.458Z,48.54
2023-01-22T11:08:41.318Z,48.54
2023-01-22T11:11:11.191Z,48.53
2023-01-22T11:13:44.615Z,48.55
2023-01-22T11:16:16.247Z,48.31
2023-01-22T11:18:44.734Z,48.64
2023-01-22T11:21:15.418Z,48.15
2023-01-22T11:23:46.884Z,48.38
2023-01-22T11:26:18.176Z,48.51
2023-01-22T11:28:48.951Z,48.27
2023-01-22T11:31:40.886Z,48.41
2023-01-22T11:34:25.872Z,48.28
2023-01-22T11:36:56.907Z,48.44
2023-01-22T11:39:34.302Z,48.17
2023-01-22T11:42:05.641Z,48.46
2023-01-22T11:44:53.704Z,48.30
2023-01-22T11:47:36.021Z,48.13
2023-01-22T11:50:16.724Z,48.30
2023-01-22T11:52:49.544Z,48.39
2023-01-22T11:55:43.803Z,48.32
2023-01-22T11:58:16.459Z,48.12
2023-01-22T12:00:46.262Z,48.34
2023-01-22T12:03:23.679Z,48.34
2023-01-22T12:05:55.803Z,48.29
2023-01-22T12:08:33.429Z,48.23
2023-01-22T12:11:17.183Z,48.54
2023-01-22T12:14:11.986Z,48.35
2023-01-22T12:16:44.735Z,48.25
2023-01-22T12:19:40.525Z,48.54
2023-01-22T12:22:10.430Z,48.42
2023-01-22T12:24:40.565Z,48.53
2023-01-22T12:27:12.453Z,48.45
2023-01-22T12:29:42.667Z,48.50
2023-01-22T12:32:12.053Z,48.53
2023-01-22T12:34:43.011Z,48.45
2023-01-22T12:37:12.280Z,48.50
2023-01-22T12:39:41.980Z,48.28
2023-01-22T12:42:16.482Z,48.04
2023-01-22T12:44:51.751Z,48.25
2023-01-22T12:47:21.064Z,48.20
2023-01-22T12:49:50.055Z,48.39
2023-01-22T12:52:34.774Z,48.28
2023-01-22T12:55:03.613Z,47.97
2023-01-22T12:57:38.960Z,48.40
2023-01-22T13:00:24.621Z,48.14
2023-01-22T13:02:52.365Z,48.12
2023-01-22T13:05:23.216Z,48.35
2023-01-22T13:07:52.181Z,48.40
2023-01-22T13:10:26.002Z,48.35
2023-01-22T13:12:54.576Z,48.15
2023-01-22T13:15:25.084Z,48.25
2023-01-22T13:18:06.325Z,48.38
2023-01-22T13:20:36.083Z,48.23
2023-01-22T13:23:03.817Z,48.22
2023-01-22T13:25:33.230Z,48.17
2023-01-22T13:28:01.583Z,48.43
2023-01-22T13:30:31.822Z,48.22
2023-01-22T13:33:14.014Z,48.10
2023-01-22T13:35:42.618Z,48.39
2023-01-22T13:38:18.644Z,48.26
2023-01-22T13:40:51.334Z,48.65
2023-01-22T13:43:19.752Z,48.61
2023-01-22T13:45:48.765Z,48.41
2023-01-22T13:48:18.226Z,48.30
2023-01-22T13:50:47.509Z,48.25
2023-01-22T13:53:23.433Z,48.21
2023-01-22T13:55:51.118Z,48.56
2023-01-22T13:58:46.706Z,48.23
2023-01-22T14:01:29.694Z,48.33
2023-01-22T14:03:59.788Z,48.22
2023-01-22T14:06:27.484Z,48.41
2023-01-22T14:08:56.628Z,48.55
2023-01-22T14:11:24.455Z,48.44
2023-01-22T14:13:52.997Z,48.27
2023-01-22T14:16:23.237Z,48.44
2023-01-22T14:18:50.947Z,48.00
2023-01-22T14:21:18.622Z,48.02
2023-01-22T14:23:46.513Z,48.33
2023-01-22T14:26:14.260Z,48.09
2023-01-22T14:28:41.960Z,48.44
2023-01-22T14:31:09.699Z,48.23
2023-01-22T14:33:38.784Z,48.31
2023-01-22T14:36:07.484Z,48.28
2023-01-22T14:38:35.233Z,47.99
2023-01-22T14:41:04.451Z,48.19
2023-01-22T14:43:32.184Z,47.97
2023-01-22T14:46:00.186Z,48.34
2023-01-22T14:48:27.985Z,48.32
2023-01-22T14:50:57.746Z,48.29
2023-01-22T14:53:25.581Z,48.31
2023-01-22T14:55:53.285Z,48.10
2023-01-22T14:58:21.022Z,48.09
2023-01-22T15:00:49.109Z,48.06
2023-01-22T15:03:16.847Z,48.13
2023-01-22T15:05:45.153Z,48.16
2023-01-22T15:08:14.193Z,48.06
2023-01-22T15:10:41.951Z,48.02
2023-01-22T15:13:09.950Z,48.01
2023-01-22T15:15:37.738Z,48.13
2023-01-22T15:18:05.501Z,47.98
2023-01-22T15:20:33.258Z,48.15
2023-01-22T15:23:01.153Z,48.36
2023-01-22T15:25:32.140Z,48.34
2023-01-22T15:27:59.879Z,48.12
2023-01-22T15:30:27.631Z,48.14
2023-01-22T15:32:55.591Z,48.12
2023-01-22T15:35:23.319Z,48.41
2023-01-22T15:37:51.047Z,48.23
2023-01-22T15:40:19.275Z,48.04
2023-01-22T15:42:48.521Z,48.30
2023-01-22T15:45:16.392Z,48.04
2023-01-22T15:47:44.112Z,48.05
2023-01-22T15:50:19.965Z,48.45
2023-01-22T15:52:47.836Z,48.20
2023-01-22T15:55:15.730Z,48.37
2023-01-22T15:57:43.420Z,48.37
2023-01-22T16:00:14.989Z,48.28
2023-01-22T16:02:43.357Z,48.41
2023-01-22T16:05:11.170Z,48.13
2023-01-22T16:07:38.874Z,48.24
2023-01-22T16:10:07.129Z,48.32
2023-01-22T16:12:34.840Z,48.08
2023-01-22T16:15:02.596Z,48.39
2023-01-22T16:17:31.663Z,48.21
2023-01-22T16:19:59.382Z,48.39
2023-01-22T16:22:27.703Z,48.34
2023-01-22T16:24:55.404Z,48.07
2023-01-22T16:27:23.086Z,48.24
2023-01-22T16:29:50.869Z,48.05
2023-01-22T16:32:18.557Z,48.00
2023-01-22T16:34:50.306Z,48.00
2023-01-22T16:37:18.000Z,48.30
2023-01-22T16:39:45.691Z,48.15
2023-01-22T16:42:13.393Z,48.19
2023-01-22T16:44:41.083Z,48.15
2023-01-22T16:47:08.798Z,48.16
2023-01-22T16:49:36.473Z,48.16
2023-01-22T16:52:21.296Z,48.27
2023-01-22T16:54:49.568Z,48.23
2023-01-22T16:57:18.054Z,48.40
2023-01-22T16:59:45.740Z,48.50
2023-01-22T17:02:14.384Z,48.03
2023-01-22T17:04:42.129Z,48.14
2023-01-22T17:07:27.294Z,48.40
2023-01-22T17:09:59.679Z,47.99
2023-01-22T17:12:27.474Z,48.17
2023-01-22T17:14:55.296Z,48.26
2023-01-22T17:17:22.975Z,48.23
2023-01-22T17:19:50.696Z,48.10
2023-01-22T17:22:20.216Z,48.34
2023-01-22T17:24:47.986Z,48.33
2023-01-22T17:27:18.398Z,48.40
2023-01-22T17:29:46.180Z,48.42
2023-01-22T17:32:13.895Z,48.16
2023-01-22T17:34:42.072Z,48.51
2023-01-22T17:37:11.162Z,48.27
2023-01-22T17:39:40.836Z,48.23
2023-01-22T17:42:08.541Z,48.22
2023-01-22T17:44:36.270Z,48.21
2023-01-22T17:47:05.705Z,48.08
2023-01-22T17:49:34.928Z,48.27
2023-01-22T17:52:02.737Z,48.32
2023-01-22T17:54:30.469Z,48.14
2023-01-22T17:56:59.645Z,48.16
2023-01-22T17:59:27.415Z,48.39
2023-01-22T18:01:55.146Z,48.05
2023-01-22T18:04:22.921Z,48.13
2023-01-22T18:06:50.764Z,48.17
2023-01-22T18:09:18.503Z,48.22
2023-01-22T18:11:46.190Z,48.22
2023-01-22T18:14:18.379Z,48.29
2023-01-22T18:16:46.588Z,48.21
2023-01-22T18:19:14.273Z,48.08
2023-01-22T18:21:42.110Z,48.03
2023-01-22T18:24:10.137Z,48.22
2023-01-22T18:26:37.845Z,48.11
2023-01-22T18:29:05.775Z,48.13
2023-01-22T18:31:35.147Z,48.19
2023-01-22T18:34:03.817Z,48.36
2023-01-22T18:36:32.443Z,48.03
2023-01-22T18:39:00.447Z,48.10
2023-01-22T18:41:28.215Z,48.18
2023-01-22T18:43:57.137Z,48.24
2023-01-22T18:46:25.672Z,48.12
2023-01-22T18:48:55.505Z,48.04
2023-01-22T18:51:23.600Z,48.02
2023-01-22T18:53:51.410Z,48.37
2023-01-22T18:56:19.149Z,48.31
2023-01-22T18:58:48.156Z,48.10
2023-01-22T19:01:17.095Z,48.16
2023-01-22T19:03:45.501Z,48.17
2023-01-22T19:06:17.138Z,48.22
2023-01-22T19:08:46.229Z,48.16
2023-01-22T19:11:14.630Z,48.17
2023-01-22T19:13:42.754Z,48.34
2023-01-22T19:16:11.834Z,48.04
2023-01-22T19:18:40.057Z,48.26
2023-01-22T19:21:09.113Z,48.12
2023-01-22T19:23:38.207Z,48.24
2023-01-22T19:26:07.627Z,48.09
2023-01-22T19:28:35.412Z,48.20
2023-01-22T19:31:03.197Z,48.42
2023-01-22T19:33:30.972Z,48.01
2023-01-22T19:35:58.686Z,48.36
2023-01-22T19:38:26.493Z,48.35
2023-01-22T19:40:55.911Z,48.11
2023-01-22T19:43:23.798Z,48.38
2023-01-22T19:45:51.507Z,48.17
2023-01-22T19:48:21.173Z,48.15
2023-01-22T19:50:48.853Z,48.31
2023-01-22T19:53:16.582Z,48.08
2023-01-22T19:55:44.278Z,48.42
2023-01-22T19:58:13.343Z,48.06
2023-01-22T20:00:41.155Z,48.34
2023-01-22T20:03:09.311Z,48.26
2023-01-22T20:05:40.849Z,48.31
2023-01-22T20:08:08.549Z,48.11
2023-01-22T20:10:37.497Z,48.33
2023-01-22T20:13:05.162Z,48.26
2023-01-22T20:15:37.467Z,48.05
2023-01-22T20:18:05.963Z,48.37
2023-01-22T20:20:33.700Z,48.09
2023-01-22T20:23:01.487Z,48.08
2023-01-22T20:25:30.904Z,48.04
2023-01-22T20:27:58.675Z,48.17
2023-01-22T20:30:26.419Z,48.24
2023-01-22T20:32:56.651Z,48.39
2023-01-22T20:35:24.433Z,48.11
2023-01-22T20:37:52.296Z,48.20
2023-01-22T20:40:20.055Z,48.04
2023-01-22T20:42:48.642Z,48.25
2023-01-22T20:45:16.526Z,48.38
2023-01-22T20:47:44.949Z,48.28
2023-01-22T20:50:14.238Z,48.21
2023-01-22T20:52:41.960Z,48.41
2023-01-22T20:55:13.470Z,48.36
2023-01-22T20:57:41.183Z,48.12
2023-01-22T21:00:10.012Z,48.22
2023-01-22T21:02:37.718Z,48.32
2023-01-22T21:05:05.982Z,48.23
2023-01-22T21:07:35.026Z,48.02
2023-01-22T21:10:02.793Z,48.06
2023-01-22T21:12:30.530Z,47.83
2023-01-22T21:14:58.303Z,47.76
2023-01-22T21:17:26.141Z,47.62
2023-01-22T21:19:55.188Z,47.29
2023-01-22T21:22:22.891Z,47.01
2023-01-22T21:24:51.947Z,47.01
2023-01-22T21:27:19.651Z,47.17
2023-01-22T21:29:47.334Z,46.93
2023-01-22T21:32:15.258Z,46.95
2023-01-22T21:34:42.984Z,46.90
2023-01-22T21:37:10.689Z,46.74
2023-01-22T21:39:44.859Z,46.79
2023-01-22T21:42:31.345Z,46.66
2023-01-22T21:45:25.032Z,47.04
2023-01-22T21:47:52.782Z,46.98
2023-01-22T21:50:20.881Z,47.02
2023-01-22T21:52:49.128Z,46.96
2023-01-22T21:55:17.036Z,47.40
2023-01-22T21:57:46.062Z,47.58
2023-01-22T22:00:16.824Z,47.83
2023-01-22T22:02:45.115Z,47.75
2023-01-22T22:05:12.875Z,48.01
2023-01-22T22:07:40.579Z,48.04
2023-01-22T22:10:11.724Z,47.95
2023-01-22T22:12:39.527Z,48.04
2023-01-22T22:15:11.503Z,47.90
2023-01-22T22:17:39.348Z,48.06
2023-01-22T22:20:07.901Z,47.76
2023-01-22T22:22:35.589Z,48.13
2023-01-22T22:25:03.248Z,48.16
2023-01-22T22:27:30.905Z,48.42
2023-01-22T22:29:58.579Z,48.40
2023-01-22T22:32:27.709Z,48.63
2023-01-22T22:34:55.372Z,48.82
2023-01-22T22:37:23.048Z,48.73
2023-01-22T22:39:50.713Z,48.86
2023-01-22T22:42:18.414Z,49.03
2023-01-22T22:44:46.279Z,49.03
2023-01-22T22:47:13.946Z,49.25
2023-01-22T22:49:43.113Z,48.97
2023-01-22T22:52:10.825Z,48.84
2023-01-22T22:54:38.554Z,49.16
2023-01-22T22:57:06.213Z,48.99
2023-01-22T22:59:33.873Z,49.03
2023-01-22T23:02:01.561Z,49.01
2023-01-22T23:04:29.320Z,49.16
2023-01-22T23:06:58.399Z,49.18
2023-01-22T23:09:26.066Z,49.07
2023-01-22T23:11:55.965Z,49.17
2023-01-22T23:14:23.760Z,49.04
2023-01-22T23:16:51.464Z,49.19
2023-01-22T23:19:20.403Z,49.18
2023-01-22T23:21:50.104Z,49.28
2023-01-22T23:24:19.122Z,49.18
2023-01-22T23:26:46.928Z,49.30
2023-01-22T23:29:15.608Z,49.19
2023-01-22T23:31:43.433Z,49.17
2023-01-22T23:34:12.829Z,49.50
2023-01-22T23:36:40.889Z,49.22
2023-01-22T23:39:08.578Z,49.29
2023-01-22T23:41:37.597Z,49.59
2023-01-22T23:44:05.584Z,49.38
2023-01-22T23:46:34.940Z,49.64
2023-01-22T23:49:02.962Z,49.63
2023-01-22T23:51:31.062Z,49.65
2023-01-22T23:53:58.880Z,49.64
2023-01-22T23:56:27.521Z,49.60
2023-01-22T23:58:56.810Z,49.52
